Time,TemperatureF,DewpointF,PressureIn,WindDirection,WindDirectionDegrees,WindSpeedMPH,WindSpeedGustMPH,Humidity,HourlyPrecipIn,Conditions,Clouds,dailyrainin,SolarRadiationWatts/m^2,SoftwareType,DateUTC
2015-09-04 00:02:00,59.9,55.8,29.48,SE,135,1.8,4.9,86,0.00,,,0.00,0.00,Weather logger V1.0,2015-09-04 07:02:00,
2015-09-04 00:07:00,59.9,55.8,29.48,ESE,117,4.0,4.9,86,0.00,,,0.00,0.00,Weather logger V1.0,2015-09-04 07:07:00,
2015-09-04 00:12:00,59.7,55.6,29.48,ESE,108,2.5,4.9,86,0.00,,,0.00,0.00,Weather logger V1.0,2015-09-04 07:12:00,
2015-09-04 00:17:00,59.7,55.6,29.48,SE,141,3.4,4.9,86,0.00,,,0.00,0.00,Weather logger V1.0,2015-09-04 07:17:00,
2015-09-04 00:22:00,59.5,55.4,29.48,ESE,118,1.8,2.5,86,0.00,,,0.00,0.00,Weather logger V1.0,2015-09-04 07:22:00,
2015-09-04 00:27:00,59.5,55.8,29.48,SSE,147,1.3,2.5,87,0.00,,,0.00,0.00,Weather logger V1.0,2015-09-04 07:27:00,
2015-09-04 00:32:00,59.5,55.8,29.48,ESE,114,0.9,2.5,87,0.00,,,0.00,0.00,Weather logger V1.0,2015-09-04 07:32:00,
2015-09-04 00:38:00,59.4,55.6,29.49,SE,126,5.1,7.4,87,0.00,,,0.00,0.00,Weather logger V1.0,2015-09-04 07:38:00,
2015-09-04 00:43:00,59.4,55.6,29.49,ESE,105,2.9,4.9,87,0.00,,,0.00,0.00,Weather logger V1.0,2015-09-04 07:43:00,
2015-09-04 00:48:00,59.4,55.6,29.48,SSW,193,0.2,2.5,87,0.00,,,0.00,0.00,Weather logger V1.0,2015-09-04 07:48:00,
2015-09-04 00:53:00,59.4,55.6,29.49,ESE,119,3.6,4.9,87,0.00,,,0.00,0.00,Weather logger V1.0,2015-09-04 07:53:00,
2015-09-04 00:58:00,59.4,55.6,29.49,ESE,116,4.9,7.4,87,0.00,,,0.00,0.00,Weather logger V1.0,2015-09-04 07:58:00,
2015-09-04 01:03:00,59.4,55.2,29.48,ESE,122,3.6,4.9,86,0.00,,,0.00,0.00,Weather logger V1.0,2015-09-04 08:03:00,
2015-09-04 01:08:00,59.4,55.2,29.48,East,95,4.9,7.4,86,0.00,,,0.00,0.00,Weather logger V1.0,2015-09-04 08:08:00,
2015-09-04 01:13:00,59.4,55.2,29.49,ENE,66,4.2,4.9,86,0.00,,,0.00,0.00,Weather logger V1.0,2015-09-04 08:13:00,
2015-09-04 01:18:00,59.4,55.6,29.48,SE,139,2.9,4.9,87,0.00,,,0.00,0.00,Weather logger V1.0,2015-09-04 08:18:00,
2015-09-04 01:23:00,59.4,55.6,29.48,SE,142,4.2,7.4,87,0.00,,,0.00,0.00,Weather logger V1.0,2015-09-04 08:23:00,
2015-09-04 01:28:00,59.2,55.6,29.48,ESE,121,3.6,4.9,88,0.00,,,0.00,0.00,Weather logger V1.0,2015-09-04 08:28:00,
2015-09-04 01:33:00,59.2,55.6,29.48,SE,137,2.9,4.9,88,0.00,,,0.00,0.00,Weather logger V1.0,2015-09-04 08:33:00,
2015-09-04 01:38:00,59.2,55.6,29.48,South,175,2.7,4.9,88,0.00,,,0.00,0.00,Weather logger V1.0,2015-09-04 08:38:00,
2015-09-04 01:43:00,59.2,55.6,29.48,ESE,108,1.8,2.5,88,0.00,,,0.00,0.00,Weather logger V1.0,2015-09-04 08:43:00,
2015-09-04 01:48:00,59.0,55.8,29.48,ESE,104,2.0,2.5,89,0.00,,,0.00,0.00,Weather logger V1.0,2015-09-04 08:48:00,
2015-09-04 01:54:00,59.0,55.8,29.48,ESE,117,1.8,2.5,89,0.00,,,0.00,0.00,Weather logger V1.0,2015-09-04 08:54:00,
2015-09-04 01:59:00,58.8,55.6,29.47,SE,145,1.8,2.5,89,0.00,,,0.00,0.00,Weather logger V1.0,2015-09-04 08:59:00,
2015-09-04 02:04:00,58.8,55.9,29.47,SE,140,0.0,0.0,90,0.00,,,0.00,0.00,Weather logger V1.0,2015-09-04 09:04:00,
2015-09-04 02:09:00,58.6,55.8,29.47,SE,128,0.4,2.5,90,0.00,,,0.00,0.00,Weather logger V1.0,2015-09-04 09:09:00,
2015-09-04 02:14:00,58.5,55.6,29.47,SSE,148,1.1,2.5,90,0.00,,,0.00,0.00,Weather logger V1.0,2015-09-04 09:14:00,
2015-09-04 02:19:00,58.3,55.4,29.48,SSE,153,0.9,2.5,90,0.00,,,0.00,0.00,Weather logger V1.0,2015-09-04 09:19:00,
2015-09-04 02:24:00,58.3,55.8,29.47,SE,143,1.3,2.5,91,0.00,,,0.00,0.00,Weather logger V1.0,2015-09-04 09:24:00,
2015-09-04 02:29:00,58.1,55.6,29.47,SE,125,2.5,2.5,91,0.00,,,0.00,0.00,Weather logger V1.0,2015-09-04 09:29:00,
2015-09-04 02:34:00,58.1,55.2,29.47,ESE,110,1.3,2.5,90,0.00,,,0.00,0.00,Weather logger V1.0,2015-09-04 09:34:00,
2015-09-04 02:39:00,58.1,55.2,29.47,ESE,114,2.0,4.9,90,0.00,,,0.00,0.00,Weather logger V1.0,2015-09-04 09:39:00,
2015-09-04 02:44:00,58.1,54.9,29.47,SE,129,4.0,4.9,89,0.00,,,0.00,0.00,Weather logger V1.0,2015-09-04 09:44:00,
2015-09-04 02:49:00,58.3,55.0,29.47,SSE,164,2.9,4.9,89,0.00,,,0.00,0.00,Weather logger V1.0,2015-09-04 09:49:00,
2015-09-04 02:54:00,58.3,55.4,29.47,SSE,158,1.3,2.5,90,0.00,,,0.00,0.00,Weather logger V1.0,2015-09-04 09:54:00,
2015-09-04 02:59:00,58.1,55.2,29.47,SSE,162,0.2,2.5,90,0.00,,,0.00,0.00,Weather logger V1.0,2015-09-04 09:59:00,
2015-09-04 03:04:00,58.1,55.6,29.47,SE,124,1.3,2.5,91,0.00,,,0.00,0.00,Weather logger V1.0,2015-09-04 10:04:00,
2015-09-04 03:10:00,58.1,55.6,29.46,SE,124,0.0,0.0,91,0.00,,,0.00,0.00,Weather logger V1.0,2015-09-04 10:10:00,
2015-09-04 03:15:00,57.9,55.4,29.47,SE,133,0.2,2.5,91,0.00,,,0.00,0.00,Weather logger V1.0,2015-09-04 10:15:00,
2015-09-04 03:20:00,57.9,55.4,29.47,SE,130,1.3,2.5,91,0.00,,,0.00,0.00,Weather logger V1.0,2015-09-04 10:20:00,
2015-09-04 03:21:00,57.9,55.4,29.47,SSE,163,3.4,4.9,91,0.00,,,0.00,0.00,Weather logger V1.0,2015-09-04 10:21:00,
2015-09-04 03:25:00,57.9,55.4,29.47,SE,128,1.8,2.5,91,0.00,,,0.00,0.00,Weather logger V1.0,2015-09-04 10:25:00,
2015-09-04 03:30:00,57.9,55.4,29.47,SE,135,1.8,4.9,91,0.00,,,0.00,0.00,Weather logger V1.0,2015-09-04 10:30:00,
2015-09-04 03:32:00,57.9,55.4,29.47,South,169,3.4,4.9,91,0.00,,,0.00,0.00,Weather logger V1.0,2015-09-04 10:32:00,
2015-09-04 03:37:00,57.9,55.4,29.47,SSE,152,2.7,4.9,91,0.00,,,0.00,0.00,Weather logger V1.0,2015-09-04 10:37:00,
2015-09-04 03:42:00,57.9,55.4,29.47,SSE,160,4.0,4.9,91,0.00,,,0.00,0.00,Weather logger V1.0,2015-09-04 10:42:00,
2015-09-04 03:47:00,57.7,55.2,29.47,SE,129,2.0,2.5,91,0.00,,,0.00,0.00,Weather logger V1.0,2015-09-04 10:47:00,
2015-09-04 03:52:00,57.7,55.2,29.47,SSE,149,2.0,2.5,91,0.00,,,0.00,0.00,Weather logger V1.0,2015-09-04 10:52:00,
2015-09-04 03:57:00,57.7,55.2,29.47,SE,145,2.9,4.9,91,0.00,,,0.00,0.00,Weather logger V1.0,2015-09-04 10:57:00,
2015-09-04 04:02:00,57.6,55.2,29.47,SSE,147,1.8,4.9,92,0.00,,,0.00,0.00,Weather logger V1.0,2015-09-04 11:02:00,
2015-09-04 04:07:00,57.4,55.4,29.46,SSE,157,2.0,2.5,93,0.00,,,0.00,0.00,Weather logger V1.0,2015-09-04 11:07:00,
2015-09-04 04:12:00,57.2,55.2,29.47,ESE,111,1.1,2.5,93,0.00,,,0.00,0.00,Weather logger V1.0,2015-09-04 11:12:00,
2015-09-04 04:18:00,57.0,55.0,29.48,SE,128,0.4,2.5,93,0.00,,,0.00,0.00,Weather logger V1.0,2015-09-04 11:18:00,
2015-09-04 04:23:00,57.0,55.0,29.47,East,99,2.9,4.9,93,0.00,,,0.00,0.00,Weather logger V1.0,2015-09-04 11:23:00,
2015-09-04 04:28:00,56.8,54.9,29.47,ESE,121,0.2,2.5,93,0.00,,,0.00,0.00,Weather logger V1.0,2015-09-04 11:28:00,
2015-09-04 04:33:00,56.8,54.9,29.47,SSE,154,0.4,2.5,93,0.00,,,0.00,0.00,Weather logger V1.0,2015-09-04 11:33:00,
2015-09-04 04:43:00,56.8,54.9,29.47,SE,125,0.2,2.5,93,0.00,,,0.00,0.00,Weather logger V1.0,2015-09-04 11:43:00,
2015-09-04 04:48:00,56.8,54.9,29.47,SE,142,0.0,0.0,93,0.00,,,0.00,0.00,Weather logger V1.0,2015-09-04 11:48:00,
2015-09-04 04:53:00,56.8,54.9,29.47,SE,139,0.4,2.5,93,0.00,,,0.00,0.00,Weather logger V1.0,2015-09-04 11:53:00,
2015-09-04 04:58:00,56.7,54.7,29.47,SE,138,0.0,0.0,93,0.00,,,0.00,0.00,Weather logger V1.0,2015-09-04 11:58:00,
2015-09-04 05:03:00,56.7,55.0,29.47,SSE,148,2.7,4.9,94,0.00,,,0.00,0.00,Weather logger V1.0,2015-09-04 12:03:00,
2015-09-04 05:08:00,56.7,55.0,29.47,SSE,167,0.0,0.0,94,0.00,,,0.00,0.00,Weather logger V1.0,2015-09-04 12:08:00,
2015-09-04 05:13:00,56.7,55.0,29.47,SE,140,1.8,2.5,94,0.00,,,0.00,0.00,Weather logger V1.0,2015-09-04 12:13:00,
2015-09-04 05:18:00,56.7,55.0,29.46,SSE,155,2.7,4.9,94,0.00,,,0.00,0.00,Weather logger V1.0,2015-09-04 12:18:00,
2015-09-04 05:23:00,56.7,55.0,29.47,ESE,110,2.5,4.9,94,0.00,,,0.00,0.00,Weather logger V1.0,2015-09-04 12:23:00,
2015-09-04 05:28:00,56.5,54.9,29.47,SE,133,1.3,2.5,94,0.00,,,0.00,0.00,Weather logger V1.0,2015-09-04 12:28:00,
2015-09-04 05:34:00,56.7,55.0,29.47,SE,143,2.0,4.9,94,0.00,,,0.00,0.00,Weather logger V1.0,2015-09-04 12:34:00,
2015-09-04 05:39:00,56.7,54.7,29.48,SSE,148,1.3,2.5,93,0.00,,,0.00,0.00,Weather logger V1.0,2015-09-04 12:39:00,
2015-09-04 05:44:00,56.7,54.7,29.47,SSE,150,1.3,2.5,93,0.00,,,0.00,0.00,Weather logger V1.0,2015-09-04 12:44:00,
2015-09-04 05:49:00,56.7,54.7,29.47,SE,129,0.0,0.0,93,0.00,,,0.00,0.00,Weather logger V1.0,2015-09-04 12:49:00,
2015-09-04 05:54:00,56.5,54.5,29.47,SE,125,0.9,2.5,93,0.00,,,0.00,0.00,Weather logger V1.0,2015-09-04 12:54:00,
2015-09-04 05:59:00,56.5,54.9,29.47,SE,126,1.8,2.5,94,0.00,,,0.00,0.00,Weather logger V1.0,2015-09-04 12:59:00,
2015-09-04 06:04:00,56.3,54.7,29.48,ESE,120,1.8,2.5,94,0.00,,,0.00,0.00,Weather logger V1.0,2015-09-04 13:04:00,
2015-09-04 06:09:00,56.3,54.7,29.47,SSW,194,1.1,2.5,94,0.00,,,0.00,0.00,Weather logger V1.0,2015-09-04 13:09:00,
2015-09-04 06:14:00,56.1,54.5,29.48,SSE,153,1.3,2.5,94,0.00,,,0.00,0.00,Weather logger V1.0,2015-09-04 13:14:00,
2015-09-04 06:19:00,56.1,54.1,29.47,SE,127,2.0,2.5,93,0.00,,,0.00,0.00,Weather logger V1.0,2015-09-04 13:19:00,
2015-09-04 06:24:00,56.1,54.1,29.47,SE,128,4.2,7.4,93,0.00,,,0.00,0.00,Weather logger V1.0,2015-09-04 13:24:00,
2015-09-04 06:29:00,56.1,54.1,29.48,SE,125,0.0,0.0,93,0.00,,,0.00,0.00,Weather logger V1.0,2015-09-04 13:29:00,
2015-09-04 06:34:00,56.1,54.1,29.48,SSW,209,2.0,4.9,93,0.00,,,0.00,0.00,Weather logger V1.0,2015-09-04 13:34:00,
2015-09-04 06:39:00,56.1,53.8,29.48,ESE,122,2.7,4.9,92,0.00,,,0.00,0.59,Weather logger V1.0,2015-09-04 13:39:00,
2015-09-04 06:44:00,56.1,53.8,29.49,East,101,1.3,2.5,92,0.00,,,0.00,3.58,Weather logger V1.0,2015-09-04 13:44:00,
2015-09-04 06:50:00,56.1,53.8,29.49,SSE,154,2.0,2.5,92,0.00,,,0.00,7.62,Weather logger V1.0,2015-09-04 13:50:00,
2015-09-04 06:55:00,56.3,54.0,29.49,ESE,105,2.7,4.9,92,0.00,,,0.00,13.44,Weather logger V1.0,2015-09-04 13:55:00,
2015-09-04 07:00:00,56.5,54.0,29.49,SSE,158,2.9,4.9,91,0.00,,,0.00,19.22,Weather logger V1.0,2015-09-04 14:00:00,
2015-09-04 07:05:00,56.5,53.6,29.49,SE,124,2.0,2.5,90,0.00,,,0.00,23.18,Weather logger V1.0,2015-09-04 14:05:00,
2015-09-04 07:15:00,56.7,53.4,29.50,SE,133,1.1,2.5,89,0.00,,,0.00,31.83,Weather logger V1.0,2015-09-04 14:15:00,
2015-09-04 07:20:00,56.8,53.6,29.50,ENE,61,2.5,4.9,89,0.00,,,0.00,35.79,Weather logger V1.0,2015-09-04 14:20:00,
2015-09-04 07:25:00,56.8,53.6,29.50,ESE,114,1.3,2.5,89,0.00,,,0.00,39.80,Weather logger V1.0,2015-09-04 14:25:00,
2015-09-04 07:30:00,56.8,54.0,29.51,SE,137,4.2,4.9,90,0.00,,,0.00,45.43,Weather logger V1.0,2015-09-04 14:30:00,
2015-09-04 07:35:00,56.8,53.4,29.51,SE,127,2.9,4.9,88,0.00,,,0.00,55.69,Weather logger V1.0,2015-09-04 14:35:00,
2015-09-04 07:40:00,57.0,52.9,29.52,SSE,154,4.2,4.9,86,0.00,,,0.00,60.69,Weather logger V1.0,2015-09-04 14:40:00,
2015-09-04 07:45:00,57.2,52.7,29.52,ESE,123,6.7,9.8,85,0.00,,,0.00,65.58,Weather logger V1.0,2015-09-04 14:45:00,
2015-09-04 07:50:00,57.6,52.5,29.53,SSE,156,2.7,4.9,83,0.00,,,0.00,69.80,Weather logger V1.0,2015-09-04 14:50:00,
2015-09-04 07:55:00,57.9,52.9,29.53,ESE,115,2.5,4.9,83,0.00,,,0.00,73.76,Weather logger V1.0,2015-09-04 14:55:00,
2015-09-04 08:00:00,58.3,52.5,29.53,SE,143,2.0,2.5,81,0.00,,,0.00,77.83,Weather logger V1.0,2015-09-04 15:00:00,
2015-09-04 08:06:00,58.6,52.5,29.53,SSE,162,2.7,4.9,80,0.00,,,0.00,83.05,Weather logger V1.0,2015-09-04 15:06:00,
2015-09-04 08:11:00,59.0,52.2,29.53,SE,133,2.5,2.5,78,0.00,,,0.00,87.42,Weather logger V1.0,2015-09-04 15:11:00,
2015-09-04 08:16:00,59.4,52.5,29.53,SSW,206,5.1,7.4,78,0.00,,,0.00,95.58,Weather logger V1.0,2015-09-04 15:16:00,
2015-09-04 08:21:00,59.5,52.3,29.53,SSE,155,0.2,2.5,77,0.00,,,0.00,100.45,Weather logger V1.0,2015-09-04 15:21:00,
2015-09-04 08:26:00,59.9,52.0,29.53,ESE,109,2.9,4.9,75,0.00,,,0.00,107.80,Weather logger V1.0,2015-09-04 15:26:00,
2015-09-04 08:31:00,60.1,52.2,29.53,SSW,212,2.9,4.9,75,0.00,,,0.00,114.69,Weather logger V1.0,2015-09-04 15:31:00,
2015-09-04 08:36:00,60.3,52.0,29.53,ESE,110,1.1,2.5,74,0.00,,,0.00,122.47,Weather logger V1.0,2015-09-04 15:36:00,
2015-09-04 08:41:00,60.6,51.6,29.53,SSE,157,4.0,4.9,72,0.00,,,0.00,130.53,Weather logger V1.0,2015-09-04 15:41:00,
2015-09-04 08:46:00,61.0,52.3,29.52,South,175,0.0,0.0,73,0.00,,,0.00,138.42,Weather logger V1.0,2015-09-04 15:46:00,
2015-09-04 08:51:00,61.3,52.0,29.53,SE,145,4.0,7.4,71,0.00,,,0.00,147.23,Weather logger V1.0,2015-09-04 15:51:00,
2015-09-04 08:56:00,61.9,52.0,29.52,SSW,213,5.1,7.4,70,0.00,,,0.00,157.10,Weather logger V1.0,2015-09-04 15:56:00,
2015-09-04 09:01:00,62.4,52.9,29.53,WSW,246,5.6,9.8,71,0.00,,,0.00,167.36,Weather logger V1.0,2015-09-04 16:01:00,
2015-09-04 09:06:00,63.0,52.7,29.53,SE,130,4.5,4.9,69,0.00,,,0.00,176.49,Weather logger V1.0,2015-09-04 16:06:00,
2015-09-04 09:11:00,63.5,52.9,29.53,SSE,152,4.0,4.9,68,0.00,,,0.00,185.73,Weather logger V1.0,2015-09-04 16:11:00,
2015-09-04 09:16:00,63.7,52.5,29.53,SE,134,4.0,4.9,67,0.00,,,0.00,197.62,Weather logger V1.0,2015-09-04 16:16:00,
2015-09-04 09:22:00,63.9,52.7,29.53,South,175,3.4,4.9,67,0.00,,,0.00,206.89,Weather logger V1.0,2015-09-04 16:22:00,
2015-09-04 09:27:00,64.0,52.9,29.53,SE,125,8.3,12.3,67,0.00,,,0.00,215.21,Weather logger V1.0,2015-09-04 16:27:00,
2015-09-04 09:32:00,64.2,53.1,29.53,West,259,5.1,7.4,67,0.00,,,0.00,225.51,Weather logger V1.0,2015-09-04 16:32:00,
2015-09-04 09:37:00,64.2,52.3,29.53,SSW,199,3.6,4.9,65,0.00,,,0.00,236.62,Weather logger V1.0,2015-09-04 16:37:00,
2015-09-04 09:42:00,64.4,52.9,29.53,SE,139,4.5,7.4,66,0.00,,,0.00,249.23,Weather logger V1.0,2015-09-04 16:42:00,
2015-09-04 09:47:00,64.6,52.2,29.53,SE,143,4.0,7.4,64,0.00,,,0.00,261.16,Weather logger V1.0,2015-09-04 16:47:00,
2015-09-04 09:52:00,64.8,52.3,29.53,East,100,3.6,4.9,64,0.00,,,0.00,273.38,Weather logger V1.0,2015-09-04 16:52:00,
2015-09-04 09:57:00,65.1,51.8,29.53,South,182,7.4,9.8,62,0.00,,,0.00,285.99,Weather logger V1.0,2015-09-04 16:57:00,
2015-09-04 10:02:00,65.3,52.0,29.53,SE,135,6.5,7.4,62,0.00,,,0.00,298.81,Weather logger V1.0,2015-09-04 17:02:00,
2015-09-04 10:07:00,65.5,52.5,29.53,SE,142,4.2,4.9,63,0.00,,,0.00,309.54,Weather logger V1.0,2015-09-04 17:07:00,
2015-09-04 10:12:00,65.7,52.0,29.53,SE,143,6.5,7.4,61,0.00,,,0.00,324.81,Weather logger V1.0,2015-09-04 17:12:00,
2015-09-04 10:17:00,66.0,51.8,29.53,South,169,3.6,4.9,60,0.00,,,0.00,342.18,Weather logger V1.0,2015-09-04 17:17:00,
2015-09-04 10:22:00,66.4,52.2,29.53,SSW,199,2.5,4.9,60,0.00,,,0.00,347.90,Weather logger V1.0,2015-09-04 17:22:00,
2015-09-04 10:27:00,66.6,51.8,29.53,ESE,111,4.9,7.4,59,0.00,,,0.00,362.57,Weather logger V1.0,2015-09-04 17:27:00,
2015-09-04 10:32:00,66.7,52.0,29.54,South,170,6.0,7.4,59,0.00,,,0.00,375.21,Weather logger V1.0,2015-09-04 17:32:00,
2015-09-04 10:38:00,66.9,52.7,29.53,SSW,194,5.1,7.4,60,0.00,,,0.00,388.81,Weather logger V1.0,2015-09-04 17:38:00,
2015-09-04 10:43:00,67.1,51.4,29.54,SSW,207,2.9,4.9,57,0.00,,,0.00,399.47,Weather logger V1.0,2015-09-04 17:43:00,
2015-09-04 10:48:00,67.3,51.6,29.54,SSW,202,4.5,7.4,57,0.00,,,0.00,415.49,Weather logger V1.0,2015-09-04 17:48:00,
2015-09-04 10:53:00,67.3,51.6,29.53,SSE,150,2.7,4.9,57,0.00,,,0.00,429.16,Weather logger V1.0,2015-09-04 17:53:00,
2015-09-04 10:58:00,67.3,50.5,29.53,SSE,150,1.8,2.5,55,0.00,,,0.00,442.44,Weather logger V1.0,2015-09-04 17:58:00,
2015-09-04 11:03:00,67.5,49.8,29.54,SSW,202,5.6,7.4,53,0.00,,,0.00,465.32,Weather logger V1.0,2015-09-04 18:03:00,
2015-09-04 11:08:00,67.8,50.2,29.54,SSW,199,3.4,7.4,53,0.00,,,0.00,471.89,Weather logger V1.0,2015-09-04 18:08:00,
2015-09-04 11:13:00,68.0,50.4,29.53,South,169,3.4,7.4,53,0.00,,,0.00,489.47,Weather logger V1.0,2015-09-04 18:13:00,
2015-09-04 11:18:00,68.4,50.5,29.54,ESE,109,0.0,0.0,53,0.00,,,0.00,500.69,Weather logger V1.0,2015-09-04 18:18:00,
2015-09-04 11:23:00,68.7,50.4,29.54,SSW,194,4.9,7.4,52,0.00,,,0.00,515.61,Weather logger V1.0,2015-09-04 18:23:00,
2015-09-04 11:28:00,68.9,50.0,29.54,SSW,212,5.8,7.4,51,0.00,,,0.00,526.30,Weather logger V1.0,2015-09-04 18:28:00,
2015-09-04 11:33:00,69.1,50.7,29.54,SW,232,4.2,7.4,52,0.00,,,0.00,541.04,Weather logger V1.0,2015-09-04 18:33:00,
2015-09-04 11:38:00,69.3,51.4,29.54,West,262,4.0,7.4,53,0.00,,,0.00,553.22,Weather logger V1.0,2015-09-04 18:38:00,
2015-09-04 11:43:00,69.3,50.9,29.54,SW,224,5.8,9.8,52,0.00,,,0.00,562.13,Weather logger V1.0,2015-09-04 18:43:00,
2015-09-04 11:48:00,69.3,50.9,29.53,SW,215,3.6,7.4,52,0.00,,,0.00,572.22,Weather logger V1.0,2015-09-04 18:48:00,
2015-09-04 11:54:00,69.3,49.8,29.53,South,182,2.9,4.9,50,0.00,,,0.00,579.15,Weather logger V1.0,2015-09-04 18:54:00,
2015-09-04 11:59:00,69.4,50.5,29.53,South,171,5.1,7.4,51,0.00,,,0.00,585.61,Weather logger V1.0,2015-09-04 18:59:00,
2015-09-04 12:04:00,69.4,50.0,29.53,SSW,201,6.0,7.4,50,0.00,,,0.00,590.41,Weather logger V1.0,2015-09-04 19:04:00,
2015-09-04 12:09:00,69.6,50.2,29.54,WSW,243,6.7,7.4,50,0.00,,,0.00,596.09,Weather logger V1.0,2015-09-04 19:09:00,
2015-09-04 12:14:00,69.6,52.7,29.54,WNW,284,5.8,7.4,55,0.00,,,0.00,597.72,Weather logger V1.0,2015-09-04 19:14:00,
2015-09-04 12:19:00,69.6,51.3,29.54,NW,306,2.7,4.9,52,0.00,,,0.00,603.16,Weather logger V1.0,2015-09-04 19:19:00,
2015-09-04 12:24:00,69.4,52.2,29.54,SSW,202,3.6,7.4,54,0.00,,,0.00,604.79,Weather logger V1.0,2015-09-04 19:24:00,
2015-09-04 12:29:00,69.4,51.1,29.53,SSW,196,5.6,7.4,52,0.00,,,0.00,607.92,Weather logger V1.0,2015-09-04 19:29:00,
2015-09-04 12:34:00,69.4,50.0,29.53,South,175,1.1,2.5,50,0.00,,,0.00,613.49,Weather logger V1.0,2015-09-04 19:34:00,
2015-09-04 12:39:00,69.4,50.0,29.53,South,178,5.8,9.8,50,0.00,,,0.00,619.28,Weather logger V1.0,2015-09-04 19:39:00,
2015-09-04 12:44:00,69.6,50.2,29.53,SE,145,3.6,7.4,50,0.00,,,0.00,623.61,Weather logger V1.0,2015-09-04 19:44:00,
2015-09-04 12:49:00,69.8,50.4,29.53,SSW,196,4.5,7.4,50,0.00,,,0.00,626.78,Weather logger V1.0,2015-09-04 19:49:00,
2015-09-04 12:54:00,70.0,50.0,29.53,SW,216,2.7,4.9,49,0.00,,,0.00,631.61,Weather logger V1.0,2015-09-04 19:54:00,
2015-09-04 12:59:00,70.3,49.8,29.53,SSE,151,7.4,12.3,48,0.00,,,0.00,634.63,Weather logger V1.0,2015-09-04 19:59:00,
2015-09-04 13:04:00,70.5,50.5,29.53,SSW,199,5.6,7.4,49,0.00,,,0.00,638.07,Weather logger V1.0,2015-09-04 20:04:00,
2015-09-04 13:10:00,70.5,51.1,29.53,South,184,3.6,4.9,50,0.00,,,0.00,640.59,Weather logger V1.0,2015-09-04 20:10:00,
2015-09-04 13:15:00,70.7,50.2,29.53,SSW,206,5.1,7.4,48,0.00,,,0.00,642.94,Weather logger V1.0,2015-09-04 20:15:00,
2015-09-04 13:25:00,71.1,49.8,29.53,North,352,4.2,4.9,47,0.00,,,0.00,650.96,Weather logger V1.0,2015-09-04 20:25:00,
2015-09-04 13:30:00,71.1,48.7,29.53,SSW,201,5.8,7.4,45,0.00,,,0.00,652.31,Weather logger V1.0,2015-09-04 20:30:00,
2015-09-04 13:35:00,71.2,48.9,29.53,WNW,292,4.5,7.4,45,0.00,,,0.00,653.24,Weather logger V1.0,2015-09-04 20:35:00,
2015-09-04 13:40:00,71.2,47.7,29.53,West,264,4.0,4.9,43,0.00,,,0.00,654.87,Weather logger V1.0,2015-09-04 20:40:00,
2015-09-04 13:45:00,71.6,46.8,29.53,ESE,119,4.9,7.4,41,0.00,,,0.00,658.00,Weather logger V1.0,2015-09-04 20:45:00,
2015-09-04 13:50:00,72.0,45.7,29.53,SSW,207,6.0,9.8,39,0.00,,,0.00,661.87,Weather logger V1.0,2015-09-04 20:50:00,
2015-09-04 13:55:00,72.0,45.0,29.53,SSW,193,6.0,7.4,38,0.00,,,0.00,662.33,Weather logger V1.0,2015-09-04 20:55:00,
2015-09-04 14:00:00,72.1,45.1,29.52,WNW,300,3.6,4.9,38,0.00,,,0.00,664.35,Weather logger V1.0,2015-09-04 21:00:00,
2015-09-04 14:05:00,72.3,46.0,29.52,SE,130,2.9,7.4,39,0.00,,,0.00,666.34,Weather logger V1.0,2015-09-04 21:05:00,
2015-09-04 14:10:00,72.5,45.5,29.52,SSW,204,5.8,9.8,38,0.00,,,0.00,668.15,Weather logger V1.0,2015-09-04 21:10:00,
2015-09-04 14:15:00,72.7,48.4,29.52,South,187,8.7,12.3,42,0.00,,,0.00,668.22,Weather logger V1.0,2015-09-04 21:15:00,
2015-09-04 14:20:00,72.5,46.9,29.53,South,172,7.6,9.8,40,0.00,,,0.00,668.58,Weather logger V1.0,2015-09-04 21:20:00,
2015-09-04 14:26:00,72.7,47.7,29.53,South,182,4.0,4.9,41,0.00,,,0.00,673.09,Weather logger V1.0,2015-09-04 21:26:00,
2015-09-04 14:31:00,72.7,46.4,29.53,WSW,246,5.1,7.4,39,0.00,,,0.00,672.34,Weather logger V1.0,2015-09-04 21:31:00,
2015-09-04 14:36:00,72.7,44.2,29.52,SE,143,4.5,7.4,36,0.00,,,0.00,671.53,Weather logger V1.0,2015-09-04 21:36:00,
2015-09-04 14:41:00,72.7,46.4,29.52,SE,127,8.9,12.3,39,0.00,,,0.00,670.53,Weather logger V1.0,2015-09-04 21:41:00,
2015-09-04 14:46:00,72.7,44.2,29.52,SSW,202,7.6,9.8,36,0.00,,,0.00,671.63,Weather logger V1.0,2015-09-04 21:46:00,
2015-09-04 14:51:00,73.0,46.8,29.51,SSW,192,7.2,9.8,39,0.00,,,0.00,672.10,Weather logger V1.0,2015-09-04 21:51:00,
2015-09-04 14:56:00,73.2,46.8,29.52,WSW,255,5.1,7.4,39,0.00,,,0.00,674.83,Weather logger V1.0,2015-09-04 21:56:00,
2015-09-04 15:01:00,73.8,44.4,29.51,West,266,2.7,4.9,35,0.00,,,0.00,675.54,Weather logger V1.0,2015-09-04 22:01:00,
2015-09-04 15:06:00,74.1,44.1,29.52,SSE,148,1.1,4.9,34,0.00,,,0.00,675.26,Weather logger V1.0,2015-09-04 22:06:00,
2015-09-04 15:11:00,74.7,44.4,29.51,South,169,1.8,2.5,34,0.00,,,0.00,675.61,Weather logger V1.0,2015-09-04 22:11:00,
2015-09-04 15:16:00,74.8,43.9,29.52,SSW,210,4.0,4.9,33,0.00,,,0.00,673.02,Weather logger V1.0,2015-09-04 22:16:00,
2015-09-04 15:21:00,75.2,45.7,29.51,SE,124,3.4,4.9,35,0.00,,,0.00,669.36,Weather logger V1.0,2015-09-04 22:21:00,
2015-09-04 15:27:00,75.2,45.7,29.51,SE,126,6.0,7.4,35,0.00,,,0.00,668.51,Weather logger V1.0,2015-09-04 22:27:00,
2015-09-04 15:32:00,75.4,42.6,29.51,South,187,0.4,2.5,31,0.00,,,0.00,664.49,Weather logger V1.0,2015-09-04 22:32:00,
2015-09-04 15:37:00,75.6,42.8,29.51,SSE,159,4.2,4.9,31,0.00,,,0.00,658.53,Weather logger V1.0,2015-09-04 22:37:00,
2015-09-04 15:42:00,75.7,43.0,29.51,SSE,167,0.2,2.5,31,0.00,,,0.00,654.02,Weather logger V1.0,2015-09-04 22:42:00,
2015-09-04 15:47:00,75.9,43.2,29.51,SSW,199,4.9,7.4,31,0.00,,,0.00,650.36,Weather logger V1.0,2015-09-04 22:47:00,
2015-09-04 15:52:00,76.3,42.6,29.51,SE,139,0.0,0.0,30,0.00,,,0.00,646.88,Weather logger V1.0,2015-09-04 22:52:00,
2015-09-04 15:57:00,76.6,43.0,29.51,South,189,0.0,0.0,30,0.00,,,0.00,645.07,Weather logger V1.0,2015-09-04 22:57:00,
2015-09-04 16:02:00,76.8,43.9,29.51,SSW,203,4.5,4.9,31,0.00,,,0.00,642.87,Weather logger V1.0,2015-09-04 23:02:00,
2015-09-04 16:07:00,77.0,44.1,29.51,West,263,3.4,4.9,31,0.00,,,0.00,636.93,Weather logger V1.0,2015-09-04 23:07:00,
2015-09-04 16:12:00,77.4,44.4,29.51,SSW,200,7.2,12.3,31,0.00,,,0.00,631.82,Weather logger V1.0,2015-09-04 23:12:00,
2015-09-04 16:17:00,77.4,44.4,29.51,SW,216,0.2,2.5,31,0.00,,,0.00,624.50,Weather logger V1.0,2015-09-04 23:17:00,
2015-09-04 16:22:00,77.4,45.3,29.51,West,268,7.4,9.8,32,0.00,,,0.00,622.69,Weather logger V1.0,2015-09-04 23:22:00,
2015-09-04 16:32:00,77.4,46.0,29.51,SE,128,1.3,4.9,33,0.00,,,0.00,608.20,Weather logger V1.0,2015-09-04 23:32:00,